createdAt,value
2018-11-14T00:00:51.451Z,8.40
2018-11-14T00:03:19.622Z,8.40
2018-11-14T00:05:47.666Z,8.40
2018-11-14T00:08:15.755Z,8.50
2018-11-14T00:10:43.848Z,8.40
2018-11-14T00:13:11.925Z,8.40
2018-11-14T00:15:39.984Z,8.40
2018-11-14T00:18:08.157Z,8.50
2018-11-14T00:20:36.201Z,8.60
2018-11-14T00:23:04.425Z,8.60
2018-11-14T00:25:32.476Z,8.70
2018-11-14T00:28:01.122Z,8.80
2018-11-14T00:30:28.630Z,8.80
2018-11-14T00:32:56.693Z,8.80
2018-11-14T00:35:24.749Z,8.90
2018-11-14T00:37:52.833Z,8.90
2018-11-14T00:40:21.339Z,9.00
2018-11-14T00:42:49.713Z,8.90
2018-11-14T00:45:19.361Z,9.00
2018-11-14T00:47:48.377Z,9.00
2018-11-14T00:50:17.297Z,9.10
2018-11-14T00:52:45.873Z,9.00
2018-11-14T00:55:17.239Z,9.00
2018-11-14T00:57:46.437Z,8.90
2018-11-14T01:00:16.439Z,8.90
2018-11-14T01:02:44.927Z,8.90
2018-11-14T01:05:13.831Z,8.80
2018-11-14T01:07:41.873Z,8.80
2018-11-14T01:10:11.443Z,8.80
2018-11-14T01:12:39.867Z,8.80
2018-11-14T01:15:10.003Z,8.80
2018-11-14T01:17:38.603Z,8.70
2018-11-14T01:20:07.907Z,8.70
2018-11-14T01:22:36.000Z,8.70
2018-11-14T01:25:04.027Z,8.80
2018-11-14T01:27:32.061Z,8.80
2018-11-14T01:30:00.229Z,8.70
2018-11-14T01:32:28.271Z,8.70
2018-11-14T01:34:56.295Z,8.70
2018-11-14T01:37:24.548Z,8.60
2018-11-14T01:39:52.641Z,8.60
2018-11-14T01:42:20.696Z,8.60
2018-11-14T01:44:48.799Z,8.60
2018-11-14T01:47:16.864Z,8.50
2018-11-14T01:49:44.933Z,8.50
2018-11-14T01:52:13.013Z,8.40
2018-11-14T01:54:41.112Z,8.40
2018-11-14T01:57:09.203Z,8.40
2018-11-14T01:59:37.277Z,8.40
2018-11-14T02:02:05.313Z,8.30
2018-11-14T02:04:33.414Z,8.20
2018-11-14T02:07:01.433Z,8.20
2018-11-14T02:09:29.547Z,8.20
2018-11-14T02:11:57.636Z,8.20
2018-11-14T02:14:36.583Z,8.20
2018-11-14T02:17:04.981Z,8.10
2018-11-14T02:19:33.089Z,8.10
2018-11-14T02:22:01.469Z,8.00
2018-11-14T02:24:29.688Z,8.10
2018-11-14T02:26:57.737Z,8.00
2018-11-14T02:29:25.797Z,7.90
2018-11-14T02:31:53.851Z,7.90
2018-11-14T02:34:21.916Z,8.00
2018-11-14T02:36:50.360Z,7.90
2018-11-14T02:39:18.380Z,7.90
2018-11-14T02:41:46.436Z,7.90
2018-11-14T02:44:14.534Z,7.90
2018-11-14T02:46:42.629Z,7.80
2018-11-14T02:49:10.767Z,7.70
2018-11-14T02:51:38.867Z,7.70
2018-11-14T02:54:06.899Z,7.70
2018-11-14T02:56:34.996Z,7.70
2018-11-14T02:59:03.053Z,7.60
2018-11-14T03:01:31.135Z,7.70
2018-11-14T03:03:59.269Z,7.60
2018-11-14T03:06:27.371Z,7.70
2018-11-14T03:08:55.459Z,7.60
2018-11-14T03:11:23.549Z,7.50
2018-11-14T03:13:51.601Z,7.50
2018-11-14T03:16:19.768Z,7.50
2018-11-14T03:18:47.828Z,7.50
2018-11-14T03:21:15.922Z,7.40
2018-11-14T03:23:44.001Z,7.40
2018-11-14T03:26:12.073Z,7.40
2018-11-14T03:28:40.171Z,7.40
2018-11-14T03:31:08.236Z,7.50
2018-11-14T03:33:36.252Z,7.50
2018-11-14T03:36:09.853Z,7.50
2018-11-14T03:38:38.021Z,7.40
2018-11-14T03:41:06.136Z,7.40
2018-11-14T03:43:34.259Z,7.40
2018-11-14T03:46:02.396Z,7.30
2018-11-14T03:48:30.461Z,7.30
2018-11-14T03:50:58.517Z,7.30
2018-11-14T03:53:26.582Z,7.30
2018-11-14T03:55:54.692Z,7.30
2018-11-14T03:58:22.832Z,7.30
2018-11-14T04:00:50.872Z,7.30
2018-11-14T04:03:19.006Z,7.30
2018-11-14T04:05:47.098Z,7.40
2018-11-14T04:08:15.143Z,7.50
2018-11-14T04:10:43.171Z,7.50
2018-11-14T04:13:11.340Z,7.60
2018-11-14T04:15:39.445Z,7.50
2018-11-14T04:18:07.506Z,7.60
2018-11-14T04:20:35.609Z,7.50
2018-11-14T04:23:03.652Z,7.60
2018-11-14T04:25:31.770Z,7.50
2018-11-14T04:27:59.808Z,7.40
2018-11-14T04:30:27.871Z,7.30
2018-11-14T04:32:55.977Z,7.20
2018-11-14T04:35:24.019Z,7.20
2018-11-14T04:37:52.121Z,7.20
2018-11-14T04:40:21.497Z,7.20
2018-11-14T04:42:49.613Z,7.30
2018-11-14T04:45:19.903Z,7.30
2018-11-14T04:47:48.091Z,7.20
2018-11-14T04:50:18.014Z,7.30
2018-11-14T04:52:47.022Z,7.30
2018-11-14T04:55:16.385Z,7.20
2018-11-14T04:57:44.877Z,7.20
2018-11-14T05:00:13.628Z,7.10
2018-11-14T05:02:42.673Z,7.10
2018-11-14T05:05:12.860Z,7.10
2018-11-14T05:07:41.044Z,7.00
2018-11-14T05:10:11.332Z,7.00
2018-11-14T05:12:39.620Z,6.90
2018-11-14T05:15:08.874Z,6.90
2018-11-14T05:17:36.952Z,6.90
2018-11-14T05:20:05.517Z,6.90
2018-11-14T05:22:33.575Z,6.80
2018-11-14T05:25:01.690Z,6.80
2018-11-14T05:27:29.719Z,6.70
2018-11-14T05:29:57.790Z,6.70
2018-11-14T05:32:25.859Z,6.60
2018-11-14T05:34:53.940Z,6.50
2018-11-14T05:37:22.093Z,6.50
2018-11-14T05:39:50.273Z,6.50
2018-11-14T05:42:18.229Z,6.50
2018-11-14T05:44:46.336Z,6.50
2018-11-14T05:47:14.396Z,6.50
2018-11-14T05:49:42.495Z,6.40
2018-11-14T05:52:10.533Z,6.40
2018-11-14T05:54:39.013Z,6.40
2018-11-14T05:57:07.299Z,6.50
2018-11-14T05:59:35.368Z,6.50
2018-11-14T06:02:03.523Z,6.60
2018-11-14T06:04:31.624Z,6.50
2018-11-14T06:06:59.746Z,6.50
2018-11-14T06:09:27.764Z,6.60
2018-11-14T06:11:55.834Z,6.50
2018-11-14T06:14:23.922Z,6.50
2018-11-14T06:16:51.984Z,6.50
2018-11-14T06:19:20.130Z,6.60
2018-11-14T06:21:48.252Z,6.70
2018-11-14T06:24:16.316Z,6.70
2018-11-14T06:26:44.410Z,6.70
2018-11-14T06:29:12.574Z,6.80
2018-11-14T06:31:40.605Z,6.80
2018-11-14T06:34:09.068Z,6.70
2018-11-14T06:36:37.244Z,6.70
2018-11-14T06:39:08.361Z,6.70
2018-11-14T06:41:36.581Z,6.80
2018-11-14T06:44:04.784Z,6.80
2018-11-14T06:46:32.830Z,6.90
2018-11-14T06:49:01.373Z,7.10
2018-11-14T06:51:30.121Z,7.10
2018-11-14T06:53:58.595Z,7.20
2018-11-14T06:56:26.839Z,7.20
2018-11-14T06:58:55.066Z,7.30
2018-11-14T07:01:23.122Z,7.40
2018-11-14T07:03:51.300Z,7.40
2018-11-14T07:06:19.452Z,7.50
2018-11-14T07:08:47.436Z,7.60
2018-11-14T07:11:15.537Z,7.70
2018-11-14T07:13:43.592Z,7.80
2018-11-14T07:16:11.660Z,7.90
2018-11-14T07:18:39.695Z,8.00
2018-11-14T07:21:07.867Z,7.90
2018-11-14T07:23:36.134Z,8.10
2018-11-14T07:26:04.171Z,8.20
2018-11-14T07:28:32.244Z,8.30
2018-11-14T07:31:00.360Z,8.40
2018-11-14T07:33:33.401Z,8.60
2018-11-14T07:36:01.456Z,8.60
2018-11-14T07:38:39.182Z,8.70
2018-11-14T07:41:09.574Z,8.60
2018-11-14T07:43:46.587Z,8.60
2018-11-14T07:46:15.244Z,8.50
2018-11-14T07:48:44.036Z,8.60
2018-11-14T07:51:12.104Z,9.10
2018-11-14T07:53:40.188Z,9.40
2018-11-14T07:56:09.320Z,9.60
2018-11-14T07:58:37.335Z,9.70
2018-11-14T08:01:05.862Z,10.10
2018-11-14T08:03:33.941Z,10.30
2018-11-14T08:06:01.983Z,10.30
2018-11-14T08:08:30.158Z,10.60
2018-11-14T08:10:58.311Z,10.50
2018-11-14T08:13:27.656Z,10.50
2018-11-14T08:15:57.051Z,10.90
2018-11-14T08:18:25.519Z,10.80
2018-11-14T08:20:53.689Z,10.70
2018-11-14T08:23:21.762Z,10.40
2018-11-14T08:25:49.884Z,10.10
2018-11-14T08:28:17.987Z,10.00
2018-11-14T08:30:47.323Z,10.00
2018-11-14T08:33:15.425Z,10.20
2018-11-14T08:35:43.548Z,10.20
2018-11-14T08:38:11.638Z,10.20
2018-11-14T08:40:39.765Z,10.20
2018-11-14T08:43:08.123Z,10.20
2018-11-14T08:45:36.260Z,10.20
2018-11-14T08:48:04.742Z,10.20
2018-11-14T08:50:32.818Z,10.30
2018-11-14T08:53:00.878Z,10.20
2018-11-14T08:55:29.107Z,10.20
2018-11-14T08:57:57.295Z,10.30
2018-11-14T09:00:26.545Z,10.50
2018-11-14T09:02:54.809Z,10.70
2018-11-14T09:05:22.950Z,10.70
2018-11-14T09:07:51.444Z,10.70
2018-11-14T09:10:24.721Z,10.50
2018-11-14T09:12:52.861Z,10.50
2018-11-14T09:15:22.150Z,10.30
2018-11-14T09:17:50.426Z,10.20
2018-11-14T09:20:27.177Z,10.20
2018-11-14T09:22:55.281Z,10.40
2018-11-14T09:25:28.953Z,10.20
2018-11-14T09:27:57.569Z,10.20
2018-11-14T09:30:26.391Z,10.30
2018-11-14T09:32:54.574Z,10.10
2018-11-14T09:35:23.551Z,10.10
2018-11-14T09:37:52.211Z,10.30
2018-11-14T09:40:21.704Z,10.20
2018-11-14T09:42:49.803Z,10.20
2018-11-14T09:45:21.120Z,10.30
2018-11-14T09:47:49.229Z,10.30
2018-11-14T09:50:21.470Z,10.60
2018-11-14T09:52:53.024Z,10.70
2018-11-14T09:55:21.187Z,10.90
2018-11-14T09:57:49.259Z,11.00
2018-11-14T10:00:19.689Z,11.00
2018-11-14T10:02:49.179Z,11.20
2018-11-14T10:05:18.524Z,11.70
2018-11-14T10:07:46.794Z,12.00
2018-11-14T10:10:17.004Z,12.50
2018-11-14T10:12:45.067Z,12.70
2018-11-14T10:15:15.192Z,13.10
2018-11-14T10:17:43.999Z,13.50
2018-11-14T10:20:16.303Z,13.60
2018-11-14T10:22:44.733Z,13.70
2018-11-14T10:25:13.521Z,13.90
2018-11-14T10:27:42.508Z,13.90
2018-11-14T10:30:13.779Z,14.00
2018-11-14T10:32:42.765Z,13.90
2018-11-14T10:35:11.437Z,13.60
2018-11-14T10:37:39.928Z,13.70
2018-11-14T10:40:10.661Z,13.50
2018-11-14T10:42:38.789Z,13.50
2018-11-14T10:46:11.229Z,13.30
2018-11-14T10:48:39.277Z,12.90
2018-11-14T10:51:07.425Z,13.10
2018-11-14T10:53:35.424Z,13.30
2018-11-14T10:56:03.617Z,13.60
2018-11-14T10:58:31.759Z,13.50
2018-11-14T11:01:05.371Z,13.50
2018-11-14T11:03:41.632Z,13.70
2018-11-14T11:07:17.825Z,14.00
2018-11-14T11:09:51.371Z,13.90
2018-11-14T11:12:25.020Z,14.20
2018-11-14T11:15:57.100Z,14.30
2018-11-14T11:18:26.621Z,14.80
2018-11-14T11:20:54.823Z,15.00
2018-11-14T11:23:23.224Z,15.00
2018-11-14T11:25:51.276Z,14.90
2018-11-14T11:28:19.557Z,15.00
2018-11-14T11:30:47.786Z,15.10
2018-11-14T11:33:15.878Z,15.00
2018-11-14T11:35:43.965Z,14.90
2018-11-14T11:38:12.040Z,14.50
2018-11-14T11:40:40.220Z,14.00
2018-11-14T11:43:08.356Z,13.60
2018-11-14T11:45:36.664Z,12.90
2018-11-14T11:48:04.793Z,12.40
2018-11-14T11:50:32.908Z,12.30
2018-11-14T11:53:01.533Z,12.20
2018-11-14T11:55:29.668Z,12.40
2018-11-14T11:57:57.918Z,12.40
2018-11-14T12:00:26.256Z,12.20
2018-11-14T12:02:54.113Z,12.10
2018-11-14T12:05:22.248Z,12.10
2018-11-14T12:07:50.269Z,12.10
2018-11-14T12:10:18.504Z,12.00
2018-11-14T12:12:46.587Z,11.80
2018-11-14T12:15:14.913Z,11.80
2018-11-14T12:17:43.376Z,11.70
2018-11-14T12:20:12.915Z,11.50
2018-11-14T12:22:41.525Z,11.50
2018-11-14T12:25:11.516Z,11.60
2018-11-14T12:27:39.657Z,11.60
2018-11-14T12:30:10.272Z,11.80
2018-11-14T12:32:38.380Z,11.90
2018-11-14T12:35:07.778Z,11.90
2018-11-14T12:37:35.896Z,11.80
2018-11-14T12:40:04.004Z,11.70
2018-11-14T12:42:32.095Z,11.80
2018-11-14T12:45:00.322Z,11.80
2018-11-14T12:47:28.359Z,12.00
2018-11-14T12:49:56.711Z,12.00
2018-11-14T12:52:24.889Z,12.00
2018-11-14T12:54:52.905Z,12.10
2018-11-14T12:57:21.018Z,12.10
2018-11-14T12:59:49.246Z,12.00
2018-11-14T13:02:17.314Z,11.90
2018-11-14T13:04:45.375Z,11.60
2018-11-14T13:07:13.580Z,11.50
2018-11-14T13:09:41.661Z,11.60
2018-11-14T13:12:09.738Z,11.70
2018-11-14T13:14:37.883Z,11.80
2018-11-14T13:17:06.040Z,11.90
2018-11-14T13:19:34.119Z,11.90
2018-11-14T13:22:02.403Z,11.80
2018-11-14T13:24:30.488Z,11.70
2018-11-14T13:26:58.524Z,11.60
2018-11-14T13:29:26.695Z,11.40
2018-11-14T13:31:54.828Z,11.40
2018-11-14T13:34:23.030Z,11.50
2018-11-14T13:36:51.173Z,11.60
2018-11-14T13:39:19.223Z,11.70
2018-11-14T13:41:47.301Z,11.60
2018-11-14T13:44:15.480Z,11.40
2018-11-14T13:46:43.525Z,11.30
2018-11-14T13:49:11.792Z,11.20
2018-11-14T13:51:39.724Z,11.10
2018-11-14T13:54:07.873Z,11.00
2018-11-14T13:56:36.072Z,11.00
2018-11-14T13:59:04.286Z,11.00
2018-11-14T14:01:32.397Z,10.90
2018-11-14T14:04:00.509Z,11.00
2018-11-14T14:07:53.327Z,10.90
2018-11-14T14:10:21.381Z,10.90
2018-11-14T14:12:50.781Z,10.90
2018-11-14T14:15:20.193Z,10.90
2018-11-14T14:17:48.771Z,10.90
2018-11-14T14:20:17.646Z,10.90
2018-11-14T14:22:45.747Z,10.90
2018-11-14T14:25:15.078Z,10.80
2018-11-14T14:27:43.209Z,10.70
2018-11-14T14:30:13.777Z,10.60
2018-11-14T14:32:42.719Z,10.40
2018-11-14T14:35:11.771Z,10.30
2018-11-14T14:37:40.140Z,10.10
2018-11-14T14:40:09.927Z,10.10
2018-11-14T14:42:38.093Z,10.00
2018-11-14T14:45:07.741Z,9.90
2018-11-14T14:47:36.081Z,9.80
2018-11-14T14:50:05.239Z,9.60
2018-11-14T14:52:33.384Z,9.60
2018-11-14T14:55:01.448Z,9.40
2018-11-14T14:57:29.613Z,9.30
2018-11-14T14:59:57.729Z,9.20
2018-11-14T15:02:25.895Z,9.20
2018-11-14T15:04:54.054Z,9.10
2018-11-14T15:07:22.433Z,9.00
2018-11-14T15:09:50.526Z,9.00
2018-11-14T15:12:18.646Z,8.90
2018-11-14T15:14:46.802Z,8.80
2018-11-14T15:17:14.899Z,8.70
2018-11-14T15:19:43.012Z,8.70
2018-11-14T15:22:11.153Z,8.50
2018-11-14T15:24:39.201Z,8.40
2018-11-14T15:27:07.518Z,8.40
2018-11-14T15:29:35.467Z,8.30
2018-11-14T15:32:03.499Z,8.20
2018-11-14T15:34:31.848Z,8.10
2018-11-14T15:37:00.957Z,8.10
2018-11-14T15:39:29.203Z,8.00
2018-11-14T15:41:57.345Z,7.90
2018-11-14T15:44:25.388Z,7.90
2018-11-14T15:46:53.505Z,7.80
2018-11-14T15:49:21.553Z,7.70
2018-11-14T15:51:49.756Z,7.70
2018-11-14T15:54:17.979Z,7.60
2018-11-14T15:56:46.097Z,7.50
2018-11-14T15:59:14.171Z,7.50
2018-11-14T16:01:42.242Z,7.50
2018-11-14T16:04:10.512Z,7.50
2018-11-14T16:06:38.651Z,7.40
2018-11-14T16:09:10.145Z,7.40
2018-11-14T16:11:38.209Z,7.30
2018-11-14T16:14:06.272Z,7.30
2018-11-14T16:16:34.750Z,7.20
2018-11-14T16:19:03.890Z,7.20
2018-11-14T16:21:32.002Z,7.00
2018-11-14T16:24:00.163Z,7.00
2018-11-14T16:26:28.268Z,6.90
2018-11-14T16:28:56.474Z,6.90
2018-11-14T16:31:24.540Z,7.00
2018-11-14T16:33:52.609Z,7.00
2018-11-14T16:36:20.635Z,7.00
2018-11-14T16:38:49.658Z,7.00
2018-11-14T16:41:17.729Z,7.00
2018-11-14T16:43:46.015Z,7.10
2018-11-14T16:46:14.073Z,7.10
2018-11-14T16:48:42.237Z,7.10
2018-11-14T16:51:10.333Z,7.20
2018-11-14T16:53:38.408Z,7.10
2018-11-14T16:56:06.567Z,7.10
2018-11-14T16:58:35.664Z,7.20
2018-11-14T17:01:03.777Z,7.20
2018-11-14T17:03:31.939Z,7.20
2018-11-14T17:05:59.984Z,7.20
2018-11-14T17:08:28.193Z,7.20
2018-11-14T17:10:56.328Z,7.20
2018-11-14T17:13:24.449Z,7.20
2018-11-14T17:15:52.493Z,7.20
2018-11-14T17:18:20.527Z,7.20
2018-11-14T17:20:48.654Z,7.20
2018-11-14T17:23:16.720Z,7.10
2018-11-14T17:25:44.908Z,7.10
2018-11-14T17:28:13.038Z,7.10
2018-11-14T17:30:41.128Z,7.10
2018-11-14T17:33:09.367Z,7.00
2018-11-14T17:35:37.359Z,7.10
2018-11-14T17:38:05.687Z,7.00
2018-11-14T17:40:33.818Z,7.00
2018-11-14T17:43:01.992Z,7.00
2018-11-14T17:45:31.008Z,7.00
2018-11-14T17:47:59.574Z,7.00
2018-11-14T17:50:29.222Z,7.00
2018-11-14T17:52:57.903Z,6.90
2018-11-14T17:55:26.632Z,6.80
2018-11-14T17:57:54.761Z,6.80
2018-11-14T18:00:24.177Z,6.80
2018-11-14T18:02:52.426Z,6.70
2018-11-14T18:05:23.772Z,6.70
2018-11-14T18:07:52.523Z,6.60
2018-11-14T18:10:21.779Z,6.60
2018-11-14T18:12:50.766Z,6.50
2018-11-14T18:15:19.032Z,6.50
2018-11-14T18:17:47.720Z,6.40
2018-11-14T18:20:17.218Z,6.40
2018-11-14T18:22:46.132Z,6.30
2018-11-14T18:25:14.583Z,6.30
2018-11-14T18:27:42.790Z,6.30
2018-11-14T18:30:17.402Z,6.30
2018-11-14T18:32:45.932Z,6.30
2018-11-14T18:35:16.265Z,6.40
2018-11-14T18:37:44.983Z,6.40
2018-11-14T18:40:14.512Z,6.40
2018-11-14T18:42:42.686Z,6.40
2018-11-14T18:45:14.773Z,6.50
2018-11-14T18:47:43.910Z,6.50
2018-11-14T18:50:13.730Z,6.40
2018-11-14T18:52:41.979Z,6.50
2018-11-14T18:55:11.665Z,6.50
2018-11-14T19:00:29.576Z,6.60
2018-11-14T19:02:58.101Z,6.60
2018-11-14T19:05:26.308Z,6.60
2018-11-14T19:07:54.508Z,6.70
2018-11-14T19:10:23.991Z,6.70
2018-11-14T19:12:52.559Z,6.70
2018-11-14T19:15:25.907Z,6.70
2018-11-14T19:17:54.191Z,6.80
2018-11-14T19:20:24.669Z,6.70
2018-11-14T19:22:53.284Z,6.60
2018-11-14T19:25:22.824Z,6.50
2018-11-14T19:27:51.073Z,6.50
2018-11-14T19:30:23.363Z,6.50
2018-11-14T19:32:52.274Z,6.50
2018-11-14T19:35:20.347Z,6.50
2018-11-14T19:37:49.457Z,6.40
2018-11-14T19:40:18.604Z,6.40
2018-11-14T19:42:47.731Z,6.40
2018-11-14T19:45:18.705Z,6.40
2018-11-14T19:47:46.812Z,6.50
2018-11-14T19:50:16.107Z,6.50
2018-11-14T19:52:44.525Z,6.50
2018-11-14T19:55:13.960Z,6.50
2018-11-14T19:57:43.069Z,6.50
2018-11-14T20:00:16.287Z,6.50
2018-11-14T20:02:44.386Z,6.50
2018-11-14T20:05:13.567Z,6.60
2018-11-14T20:07:41.664Z,6.60
2018-11-14T20:10:12.392Z,6.70
2018-11-14T20:12:40.457Z,6.60
2018-11-14T20:15:10.256Z,6.70
2018-11-14T20:17:38.530Z,6.70
2018-11-14T20:20:09.003Z,6.70
2018-11-14T20:22:37.149Z,6.70
2018-11-14T20:25:05.804Z,6.70
2018-11-14T20:27:34.233Z,6.70
2018-11-14T20:31:31.596Z,6.80
2018-11-14T20:33:59.655Z,6.80
2018-11-14T20:36:27.728Z,6.80
2018-11-14T20:38:55.817Z,6.90
2018-11-14T20:41:23.997Z,6.90
2018-11-14T20:43:52.037Z,7.00
2018-11-14T20:46:20.139Z,6.90
2018-11-14T20:48:48.251Z,6.90
2018-11-14T20:51:16.348Z,6.90
2018-11-14T20:53:44.561Z,6.90
2018-11-14T20:56:12.630Z,6.90
2018-11-14T20:58:40.650Z,6.90
2018-11-14T21:01:09.808Z,6.90
2018-11-14T21:03:41.104Z,6.80
2018-11-14T21:06:09.437Z,6.80
2018-11-14T21:08:37.437Z,6.70
2018-11-14T21:11:05.901Z,6.70
2018-11-14T21:13:34.929Z,6.70
2018-11-14T21:16:03.024Z,6.60
2018-11-14T21:18:32.199Z,6.60
2018-11-14T21:21:00.281Z,6.60
2018-11-14T21:23:28.445Z,6.70
2018-11-14T21:25:56.501Z,6.70
2018-11-14T21:28:24.579Z,6.60
2018-11-14T21:30:53.757Z,6.60
2018-11-14T21:33:21.838Z,6.60
2018-11-14T21:35:49.915Z,6.70
2018-11-14T21:38:18.043Z,6.70
2018-11-14T21:40:46.050Z,6.70
2018-11-14T21:43:14.286Z,6.70
2018-11-14T21:45:42.331Z,6.70
2018-11-14T21:48:12.987Z,6.70
2018-11-14T21:50:41.149Z,6.70
2018-11-14T21:53:09.250Z,6.70
2018-11-14T21:58:10.680Z,6.70
2018-11-14T22:00:39.771Z,6.70
2018-11-14T22:03:08.288Z,6.70
2018-11-14T22:05:36.646Z,6.70
2018-11-14T22:08:04.780Z,6.70
2018-11-14T22:10:32.957Z,6.60
2018-11-14T22:13:01.064Z,6.70
2018-11-14T22:15:29.856Z,6.70
2018-11-14T22:17:57.923Z,6.60
2018-11-14T22:20:26.801Z,6.60
2018-11-14T22:22:55.898Z,6.60
2018-11-14T22:25:25.006Z,6.60
2018-11-14T22:27:53.275Z,6.50
2018-11-14T22:30:23.813Z,6.50
2018-11-14T22:32:51.875Z,6.50
2018-11-14T22:35:21.246Z,6.60
2018-11-14T22:37:49.461Z,6.50
2018-11-14T22:40:18.872Z,6.50
2018-11-14T22:42:47.192Z,6.60
2018-11-14T22:45:17.124Z,6.60
2018-11-14T22:47:45.600Z,6.60
2018-11-14T22:50:14.940Z,6.60
2018-11-14T22:52:44.547Z,6.60
2018-11-14T22:55:13.853Z,6.60
2018-11-14T22:57:42.580Z,6.70
2018-11-14T23:00:22.067Z,6.70
2018-11-14T23:02:51.454Z,6.70
2018-11-14T23:05:19.698Z,6.80
2018-11-14T23:07:49.181Z,6.70
2018-11-14T23:10:17.756Z,6.70
2018-11-14T23:12:46.161Z,6.80
2018-11-14T23:15:14.184Z,6.80
2018-11-14T23:17:42.232Z,6.80
2018-11-14T23:20:12.380Z,6.70
2018-11-14T23:22:41.276Z,6.80
2018-11-14T23:25:09.976Z,6.70
2018-11-14T23:27:38.745Z,6.70
2018-11-14T23:30:08.168Z,6.70
2018-11-14T23:32:36.194Z,6.70
2018-11-14T23:35:09.692Z,6.70
2018-11-14T23:37:37.774Z,6.70
2018-11-14T23:40:06.485Z,6.70
2018-11-14T23:42:34.532Z,6.70
2018-11-14T23:45:02.668Z,6.60
2018-11-14T23:47:30.731Z,6.60
2018-11-14T23:49:58.776Z,6.60
2018-11-14T23:52:26.891Z,6.60
2018-11-14T23:54:54.895Z,6.60
2018-11-14T23:57:22.989Z,6.60
2018-11-14T23:59:51.053Z,6.60
